sensor_id;sensor_type;location;lat;lon;timestamp;temperature;humidity
39017;DHT22;24784;45.582;5.276;2022-08-18T00:01:17;17.90;99.90
39017;DHT22;24784;45.582;5.276;2022-08-18T00:03:43;17.70;99.90
39017;DHT22;24784;45.582;5.276;2022-08-18T00:06:09;17.70;99.90
39017;DHT22;24784;45.582;5.276;2022-08-18T00:08:34;17.60;99.90
39017;DHT22;24784;45.582;5.276;2022-08-18T00:11:00;17.50;99.90
39017;DHT22;24784;45.582;5.276;2022-08-18T00:13:26;17.50;99.90
39017;DHT22;24784;45.582;5.276;2022-08-18T00:15:51;17.50;99.90
39017;DHT22;24784;45.582;5.276;2022-08-18T00:18:17;17.40;99.90
39017;DHT22;24784;45.582;5.276;2022-08-18T00:20:43;17.50;99.90
39017;DHT22;24784;45.582;5.276;2022-08-18T00:23:08;17.50;99.90
39017;DHT22;24784;45.582;5.276;2022-08-18T00:25:34;17.40;99.90
39017;DHT22;24784;45.582;5.276;2022-08-18T00:28:00;17.40;99.90
39017;DHT22;24784;45.582;5.276;2022-08-18T00:30:26;17.50;99.90
39017;DHT22;24784;45.582;5.276;2022-08-18T00:32:55;17.60;99.90
39017;DHT22;24784;45.582;5.276;2022-08-18T00:35:23;17.60;99.90
39017;DHT22;24784;45.582;5.276;2022-08-18T00:37:51;17.60;99.90
39017;DHT22;24784;45.582;5.276;2022-08-18T00:40:18;17.50;99.90
39017;DHT22;24784;45.582;5.276;2022-08-18T00:42:49;17.50;99.90
39017;DHT22;24784;45.582;5.276;2022-08-18T00:45:16;17.50;99.90
39017;DHT22;24784;45.582;5.276;2022-08-18T00:47:42;17.60;99.90
39017;DHT22;24784;45.582;5.276;2022-08-18T00:50:08;17.50;99.90
39017;DHT22;24784;45.582;5.276;2022-08-18T00:52:34;17.50;99.90
39017;DHT22;24784;45.582;5.276;2022-08-18T00:55:00;17.60;99.90
39017;DHT22;24784;45.582;5.276;2022-08-18T00:57:27;17.50;99.90
39017;DHT22;24784;45.582;5.276;2022-08-18T00:59:56;17.60;99.90
39017;DHT22;24784;45.582;5.276;2022-08-18T01:02:31;17.50;99.90
39017;DHT22;24784;45.582;5.276;2022-08-18T01:04:59;17.50;99.90
39017;DHT22;24784;45.582;5.276;2022-08-18T01:07:26;17.50;99.90
39017;DHT22;24784;45.582;5.276;2022-08-18T01:09:54;17.40;99.90
39017;DHT22;24784;45.582;5.276;2022-08-18T01:12:20;17.40;99.90
39017;DHT22;24784;45.582;5.276;2022-08-18T01:14:45;17.20;99.90
39017;DHT22;24784;45.582;5.276;2022-08-18T01:17:11;17.10;99.90
39017;DHT22;24784;45.582;5.276;2022-08-18T01:19:56;17.20;99.90
39017;DHT22;24784;45.582;5.276;2022-08-18T01:22:48;17.30;99.90
39017;DHT22;24784;45.582;5.276;2022-08-18T01:25:15;17.30;99.90
39017;DHT22;24784;45.582;5.276;2022-08-18T01:27:59;17.10;99.90
39017;DHT22;24784;45.582;5.276;2022-08-18T01:30:28;17.00;99.90
39017;DHT22;24784;45.582;5.276;2022-08-18T01:32:54;16.90;99.90
39017;DHT22;24784;45.582;5.276;2022-08-18T01:35:20;16.90;99.90
39017;DHT22;24784;45.582;5.276;2022-08-18T01:37:47;17.10;99.90
39017;DHT22;24784;45.582;5.276;2022-08-18T01:40:13;17.20;99.90
39017;DHT22;24784;45.582;5.276;2022-08-18T01:42:39;17.30;99.90
39017;DHT22;24784;45.582;5.276;2022-08-18T01:45:07;17.20;99.90
39017;DHT22;24784;45.582;5.276;2022-08-18T01:47:34;17.30;99.90
39017;DHT22;24784;45.582;5.276;2022-08-18T01:50:00;17.30;99.90
39017;DHT22;24784;45.582;5.276;2022-08-18T01:52:26;17.30;99.90
39017;DHT22;24784;45.582;5.276;2022-08-18T01:54:52;17.10;99.90
39017;DHT22;24784;45.582;5.276;2022-08-18T01:57:18;17.30;99.90
39017;DHT22;24784;45.582;5.276;2022-08-18T01:59:44;17.20;99.90
39017;DHT22;24784;45.582;5.276;2022-08-18T02:02:13;17.20;99.90
39017;DHT22;24784;45.582;5.276;2022-08-18T02:04:40;17.20;99.90
39017;DHT22;24784;45.582;5.276;2022-08-18T02:07:07;17.20;99.90
39017;DHT22;24784;45.582;5.276;2022-08-18T02:09:33;17.20;99.90
39017;DHT22;24784;45.582;5.276;2022-08-18T02:11:59;17.20;99.90
39017;DHT22;24784;45.582;5.276;2022-08-18T02:14:25;17.00;99.90
39017;DHT22;24784;45.582;5.276;2022-08-18T02:16:50;17.10;99.90
39017;DHT22;24784;45.582;5.276;2022-08-18T02:19:16;17.00;99.90
39017;DHT22;24784;45.582;5.276;2022-08-18T02:21:41;17.10;99.90
39017;DHT22;24784;45.582;5.276;2022-08-18T02:24:07;17.20;99.90
39017;DHT22;24784;45.582;5.276;2022-08-18T02:26:32;17.10;99.90
39017;DHT22;24784;45.582;5.276;2022-08-18T02:28:58;17.20;99.90
39017;DHT22;24784;45.582;5.276;2022-08-18T02:31:24;17.20;99.90
39017;DHT22;24784;45.582;5.276;2022-08-18T02:33:49;17.00;99.90
39017;DHT22;24784;45.582;5.276;2022-08-18T02:36:15;17.00;99.90
39017;DHT22;24784;45.582;5.276;2022-08-18T02:38:41;17.10;99.90
39017;DHT22;24784;45.582;5.276;2022-08-18T02:41:08;17.10;99.90
39017;DHT22;24784;45.582;5.276;2022-08-18T02:43:35;17.10;99.90
39017;DHT22;24784;45.582;5.276;2022-08-18T02:46:01;17.10;99.90
39017;DHT22;24784;45.582;5.276;2022-08-18T02:48:26;17.00;99.90
39017;DHT22;24784;45.582;5.276;2022-08-18T02:51:06;17.00;99.90
39017;DHT22;24784;45.582;5.276;2022-08-18T02:53:34;17.00;99.90
39017;DHT22;24784;45.582;5.276;2022-08-18T02:56:03;17.00;99.90
39017;DHT22;24784;45.582;5.276;2022-08-18T02:58:34;17.00;99.90
39017;DHT22;24784;45.582;5.276;2022-08-18T03:01:00;17.00;99.90
39017;DHT22;24784;45.582;5.276;2022-08-18T03:03:26;17.00;99.90
39017;DHT22;24784;45.582;5.276;2022-08-18T03:05:51;16.90;99.90
39017;DHT22;24784;45.582;5.276;2022-08-18T03:08:17;17.00;99.90
39017;DHT22;24784;45.582;5.276;2022-08-18T03:10:42;16.90;99.90
39017;DHT22;24784;45.582;5.276;2022-08-18T03:13:10;16.80;99.90
39017;DHT22;24784;45.582;5.276;2022-08-18T03:15:35;16.60;99.90
39017;DHT22;24784;45.582;5.276;2022-08-18T03:18:01;16.50;99.90
39017;DHT22;24784;45.582;5.276;2022-08-18T03:20:27;16.60;99.90
39017;DHT22;24784;45.582;5.276;2022-08-18T03:22:52;16.70;99.90
39017;DHT22;24784;45.582;5.276;2022-08-18T03:25:18;16.70;99.90
39017;DHT22;24784;45.582;5.276;2022-08-18T03:27:43;16.60;99.90
39017;DHT22;24784;45.582;5.276;2022-08-18T03:30:09;16.60;99.90
39017;DHT22;24784;45.582;5.276;2022-08-18T03:32:35;16.60;99.90
39017;DHT22;24784;45.582;5.276;2022-08-18T03:35:01;16.60;99.90
39017;DHT22;24784;45.582;5.276;2022-08-18T03:37:26;16.70;99.90
39017;DHT22;24784;45.582;5.276;2022-08-18T03:39:52;16.70;99.90
39017;DHT22;24784;45.582;5.276;2022-08-18T03:42:17;16.80;99.90
39017;DHT22;24784;45.582;5.276;2022-08-18T03:44:43;16.80;99.90
39017;DHT22;24784;45.582;5.276;2022-08-18T03:47:09;16.80;99.90
39017;DHT22;24784;45.582;5.276;2022-08-18T03:49:35;16.70;99.90
39017;DHT22;24784;45.582;5.276;2022-08-18T03:52:02;16.60;99.90
39017;DHT22;24784;45.582;5.276;2022-08-18T03:54:28;16.40;99.90
39017;DHT22;24784;45.582;5.276;2022-08-18T03:56:53;16.50;99.90
39017;DHT22;24784;45.582;5.276;2022-08-18T03:59:21;16.50;99.90
39017;DHT22;24784;45.582;5.276;2022-08-18T04:01:47;16.30;99.90
39017;DHT22;24784;45.582;5.276;2022-08-18T04:04:15;16.30;99.90
39017;DHT22;24784;45.582;5.276;2022-08-18T04:06:48;16.50;99.90
39017;DHT22;24784;45.582;5.276;2022-08-18T04:09:15;16.60;99.90
39017;DHT22;24784;45.582;5.276;2022-08-18T04:11:41;16.60;99.90
39017;DHT22;24784;45.582;5.276;2022-08-18T04:14:07;16.50;99.90
39017;DHT22;24784;45.582;5.276;2022-08-18T04:16:33;16.40;99.90
39017;DHT22;24784;45.582;5.276;2022-08-18T04:19:00;16.40;99.90
39017;DHT22;24784;45.582;5.276;2022-08-18T04:21:30;16.50;99.90
39017;DHT22;24784;45.582;5.276;2022-08-18T04:23:57;16.40;99.90
39017;DHT22;24784;45.582;5.276;2022-08-18T04:26:27;16.30;99.90
39017;DHT22;24784;45.582;5.276;2022-08-18T04:28:53;16.40;99.90
39017;DHT22;24784;45.582;5.276;2022-08-18T04:31:18;16.50;99.90
39017;DHT22;24784;45.582;5.276;2022-08-18T04:33:48;16.50;99.90
39017;DHT22;24784;45.582;5.276;2022-08-18T04:36:14;16.40;99.90
39017;DHT22;24784;45.582;5.276;2022-08-18T04:38:40;16.30;99.90
39017;DHT22;24784;45.582;5.276;2022-08-18T04:41:07;16.40;99.90
39017;DHT22;24784;45.582;5.276;2022-08-18T04:43:33;16.40;99.90
39017;DHT22;24784;45.582;5.276;2022-08-18T04:45:59;16.40;99.90
39017;DHT22;24784;45.582;5.276;2022-08-18T04:48:28;16.40;99.90
39017;DHT22;24784;45.582;5.276;2022-08-18T04:51:01;16.40;99.90
39017;DHT22;24784;45.582;5.276;2022-08-18T04:53:27;16.40;99.90
39017;DHT22;24784;45.582;5.276;2022-08-18T04:56:17;16.40;99.90
39017;DHT22;24784;45.582;5.276;2022-08-18T04:58:46;16.40;99.90
39017;DHT22;24784;45.582;5.276;2022-08-18T05:01:15;16.30;99.90
39017;DHT22;24784;45.582;5.276;2022-08-18T05:03:41;16.30;99.90
39017;DHT22;24784;45.582;5.276;2022-08-18T05:06:08;16.20;99.90
39017;DHT22;24784;45.582;5.276;2022-08-18T05:08:34;16.30;99.90
39017;DHT22;24784;45.582;5.276;2022-08-18T05:10:59;16.20;99.90
39017;DHT22;24784;45.582;5.276;2022-08-18T05:13:25;16.10;99.90
39017;DHT22;24784;45.582;5.276;2022-08-18T05:15:54;16.10;99.90
39017;DHT22;24784;45.582;5.276;2022-08-18T05:18:22;16.20;99.90
39017;DHT22;24784;45.582;5.276;2022-08-18T05:20:51;16.10;99.90
39017;DHT22;24784;45.582;5.276;2022-08-18T05:23:20;16.20;99.90
39017;DHT22;24784;45.582;5.276;2022-08-18T05:25:46;16.30;99.90
39017;DHT22;24784;45.582;5.276;2022-08-18T05:28:12;16.30;99.90
39017;DHT22;24784;45.582;5.276;2022-08-18T05:30:38;16.20;99.90
39017;DHT22;24784;45.582;5.276;2022-08-18T05:33:05;16.30;99.90
39017;DHT22;24784;45.582;5.276;2022-08-18T05:35:42;16.30;99.90
39017;DHT22;24784;45.582;5.276;2022-08-18T05:40:38;16.30;99.90
39017;DHT22;24784;45.582;5.276;2022-08-18T05:43:03;16.20;99.90
39017;DHT22;24784;45.582;5.276;2022-08-18T05:45:29;16.00;99.90
39017;DHT22;24784;45.582;5.276;2022-08-18T05:47:58;16.10;99.90
39017;DHT22;24784;45.582;5.276;2022-08-18T05:50:24;16.20;99.90
39017;DHT22;24784;45.582;5.276;2022-08-18T05:52:51;16.10;99.90
39017;DHT22;24784;45.582;5.276;2022-08-18T05:58:22;16.00;99.90
39017;DHT22;24784;45.582;5.276;2022-08-18T06:00:53;16.20;99.90
39017;DHT22;24784;45.582;5.276;2022-08-18T06:03:21;16.30;99.90
39017;DHT22;24784;45.582;5.276;2022-08-18T06:05:51;16.30;99.90
39017;DHT22;24784;45.582;5.276;2022-08-18T06:08:18;16.30;99.90
39017;DHT22;24784;45.582;5.276;2022-08-18T06:10:47;16.30;99.90
39017;DHT22;24784;45.582;5.276;2022-08-18T06:13:13;16.30;99.90
39017;DHT22;24784;45.582;5.276;2022-08-18T06:15:53;16.30;99.90
39017;DHT22;24784;45.582;5.276;2022-08-18T06:21:15;16.50;99.90
39017;DHT22;24784;45.582;5.276;2022-08-18T06:34:23;16.60;99.90
39017;DHT22;24784;45.582;5.276;2022-08-18T06:41:45;16.50;99.90
39017;DHT22;24784;45.582;5.276;2022-08-18T06:44:29;16.60;99.90
39017;DHT22;24784;45.582;5.276;2022-08-18T06:49:36;16.90;99.90
39017;DHT22;24784;45.582;5.276;2022-08-18T06:54:43;16.80;99.90
39017;DHT22;24784;45.582;5.276;2022-08-18T06:57:20;16.90;99.90
39017;DHT22;24784;45.582;5.276;2022-08-18T06:59:53;16.90;99.90
39017;DHT22;24784;45.582;5.276;2022-08-18T07:04:57;16.80;99.90
39017;DHT22;24784;45.582;5.276;2022-08-18T07:07:31;16.80;99.90
39017;DHT22;24784;45.582;5.276;2022-08-18T07:09:58;16.90;99.90
39017;DHT22;24784;45.582;5.276;2022-08-18T07:12:25;17.00;99.90
39017;DHT22;24784;45.582;5.276;2022-08-18T07:14:52;17.00;99.90
39017;DHT22;24784;45.582;5.276;2022-08-18T07:17:23;17.00;99.90
39017;DHT22;24784;45.582;5.276;2022-08-18T07:20:07;17.20;99.90
39017;DHT22;24784;45.582;5.276;2022-08-18T07:22:50;17.40;99.90
39017;DHT22;24784;45.582;5.276;2022-08-18T07:25:18;17.50;99.90
39017;DHT22;24784;45.582;5.276;2022-08-18T07:27:46;17.60;99.90
39017;DHT22;24784;45.582;5.276;2022-08-18T07:35:27;17.80;99.90
39017;DHT22;24784;45.582;5.276;2022-08-18T07:37:56;18.00;99.90
39017;DHT22;24784;45.582;5.276;2022-08-18T07:40:29;18.10;99.90
39017;DHT22;24784;45.582;5.276;2022-08-18T07:43:08;18.20;99.90
39017;DHT22;24784;45.582;5.276;2022-08-18T07:45:40;18.20;99.90
39017;DHT22;24784;45.582;5.276;2022-08-18T07:50:41;18.40;99.90
39017;DHT22;24784;45.582;5.276;2022-08-18T07:55:35;18.40;99.90
39017;DHT22;24784;45.582;5.276;2022-08-18T07:58:09;18.50;99.90
39017;DHT22;24784;45.582;5.276;2022-08-18T08:00:40;18.40;99.90
39017;DHT22;24784;45.582;5.276;2022-08-18T08:05:52;18.40;99.90
39017;DHT22;24784;45.582;5.276;2022-08-18T08:08:34;18.30;99.90
39017;DHT22;24784;45.582;5.276;2022-08-18T08:11:03;18.30;99.90
39017;DHT22;24784;45.582;5.276;2022-08-18T08:21:19;18.60;99.90
39017;DHT22;24784;45.582;5.276;2022-08-18T08:26:22;19.10;99.90
39017;DHT22;24784;45.582;5.276;2022-08-18T08:33:50;19.40;99.90
39017;DHT22;24784;45.582;5.276;2022-08-18T08:38:45;19.30;99.90
39017;DHT22;24784;45.582;5.276;2022-08-18T08:41:12;19.50;99.90
39017;DHT22;24784;45.582;5.276;2022-08-18T08:43:43;19.70;99.90
39017;DHT22;24784;45.582;5.276;2022-08-18T08:48:46;19.70;99.90
39017;DHT22;24784;45.582;5.276;2022-08-18T08:53:43;19.80;99.90
39017;DHT22;24784;45.582;5.276;2022-08-18T08:56:12;19.90;99.90
39017;DHT22;24784;45.582;5.276;2022-08-18T08:58:57;20.00;99.90
39017;DHT22;24784;45.582;5.276;2022-08-18T09:01:34;20.30;99.90
39017;DHT22;24784;45.582;5.276;2022-08-18T09:14:41;20.70;99.90
39017;DHT22;24784;45.582;5.276;2022-08-18T09:24:55;20.70;99.90
39017;DHT22;24784;45.582;5.276;2022-08-18T09:29:50;20.60;99.90
39017;DHT22;24784;45.582;5.276;2022-08-18T09:37:11;20.50;99.90
39017;DHT22;24784;45.582;5.276;2022-08-18T09:39:42;20.60;99.90
39017;DHT22;24784;45.582;5.276;2022-08-18T09:57:19;20.90;99.90
39017;DHT22;24784;45.582;5.276;2022-08-18T10:02:59;21.00;99.90
39017;DHT22;24784;45.582;5.276;2022-08-18T10:13:07;21.10;99.90
39017;DHT22;24784;45.582;5.276;2022-08-18T10:15:58;21.00;99.90
39017;DHT22;24784;45.582;5.276;2022-08-18T10:20:59;20.80;99.90
39017;DHT22;24784;45.582;5.276;2022-08-18T10:23:48;20.80;99.90
39017;DHT22;24784;45.582;5.276;2022-08-18T10:28:59;20.70;99.90
39017;DHT22;24784;45.582;5.276;2022-08-18T10:31:26;20.90;99.90
39017;DHT22;24784;45.582;5.276;2022-08-18T10:34:06;20.90;99.90
39017;DHT22;24784;45.582;5.276;2022-08-18T10:39:25;21.30;99.90
39017;DHT22;24784;45.582;5.276;2022-08-18T10:41:55;21.40;99.90
39017;DHT22;24784;45.582;5.276;2022-08-18T10:44:21;21.30;99.90
39017;DHT22;24784;45.582;5.276;2022-08-18T10:49:15;21.20;99.90
39017;DHT22;24784;45.582;5.276;2022-08-18T11:04:25;21.40;99.90
39017;DHT22;24784;45.582;5.276;2022-08-18T11:06:55;21.50;99.90
39017;DHT22;24784;45.582;5.276;2022-08-18T11:09:26;21.60;99.90
39017;DHT22;24784;45.582;5.276;2022-08-18T11:11:53;21.70;99.90
39017;DHT22;24784;45.582;5.276;2022-08-18T11:19:48;21.70;99.90
39017;DHT22;24784;45.582;5.276;2022-08-18T11:22:25;21.80;99.90
39017;DHT22;24784;45.582;5.276;2022-08-18T11:24:51;21.70;99.90
39017;DHT22;24784;45.582;5.276;2022-08-18T11:27:31;21.90;99.90
39017;DHT22;24784;45.582;5.276;2022-08-18T11:30:00;21.80;99.90
39017;DHT22;24784;45.582;5.276;2022-08-18T11:37:43;21.70;99.90
39017;DHT22;24784;45.582;5.276;2022-08-18T11:40:11;21.70;99.90
39017;DHT22;24784;45.582;5.276;2022-08-18T11:42:58;21.70;99.90
39017;DHT22;24784;45.582;5.276;2022-08-18T11:45:27;21.60;99.90
39017;DHT22;24784;45.582;5.276;2022-08-18T11:48:16;21.60;99.90
39017;DHT22;24784;45.582;5.276;2022-08-18T11:53:14;21.50;99.90
39017;DHT22;24784;45.582;5.276;2022-08-18T11:55:43;21.60;99.90
39017;DHT22;24784;45.582;5.276;2022-08-18T11:58:09;21.50;99.90
39017;DHT22;24784;45.582;5.276;2022-08-18T12:08:32;21.70;99.90
39017;DHT22;24784;45.582;5.276;2022-08-18T12:11:04;21.70;99.90
39017;DHT22;24784;45.582;5.276;2022-08-18T12:13:30;21.60;99.90
39017;DHT22;24784;45.582;5.276;2022-08-18T12:18:54;21.60;99.90
39017;DHT22;24784;45.582;5.276;2022-08-18T12:21:19;21.70;99.90
39017;DHT22;24784;45.582;5.276;2022-08-18T12:23:45;21.60;99.90
39017;DHT22;24784;45.582;5.276;2022-08-18T12:26:12;21.50;99.90
39017;DHT22;24784;45.582;5.276;2022-08-18T12:28:39;21.50;99.90
39017;DHT22;24784;45.582;5.276;2022-08-18T12:31:06;21.60;99.90
39017;DHT22;24784;45.582;5.276;2022-08-18T12:33:32;21.60;99.90
39017;DHT22;24784;45.582;5.276;2022-08-18T12:35:57;21.60;99.90
39017;DHT22;24784;45.582;5.276;2022-08-18T12:38:23;21.60;99.90
39017;DHT22;24784;45.582;5.276;2022-08-18T12:40:49;21.50;99.90
39017;DHT22;24784;45.582;5.276;2022-08-18T12:43:14;21.50;99.90
39017;DHT22;24784;45.582;5.276;2022-08-18T12:45:40;21.50;99.90
39017;DHT22;24784;45.582;5.276;2022-08-18T12:48:06;21.50;99.90
39017;DHT22;24784;45.582;5.276;2022-08-18T12:50:32;21.40;99.90
39017;DHT22;24784;45.582;5.276;2022-08-18T12:52:57;21.50;99.90
39017;DHT22;24784;45.582;5.276;2022-08-18T12:55:23;21.50;99.90
39017;DHT22;24784;45.582;5.276;2022-08-18T12:57:48;21.70;99.90
39017;DHT22;24784;45.582;5.276;2022-08-18T13:00:14;21.70;99.90
39017;DHT22;24784;45.582;5.276;2022-08-18T13:02:40;21.80;99.90
39017;DHT22;24784;45.582;5.276;2022-08-18T13:05:06;21.80;99.90
39017;DHT22;24784;45.582;5.276;2022-08-18T13:07:31;21.90;99.90
39017;DHT22;24784;45.582;5.276;2022-08-18T13:12:39;21.90;99.90
39017;DHT22;24784;45.582;5.276;2022-08-18T13:15:05;21.90;99.90
39017;DHT22;24784;45.582;5.276;2022-08-18T13:17:35;22.00;99.90
39017;DHT22;24784;45.582;5.276;2022-08-18T13:20:03;21.90;99.90
39017;DHT22;24784;45.582;5.276;2022-08-18T13:22:30;21.80;99.90
39017;DHT22;24784;45.582;5.276;2022-08-18T13:24:58;21.80;99.90
39017;DHT22;24784;45.582;5.276;2022-08-18T13:27:24;21.80;99.90
39017;DHT22;24784;45.582;5.276;2022-08-18T13:30:12;21.90;99.90
39017;DHT22;24784;45.582;5.276;2022-08-18T13:32:43;21.90;99.90
39017;DHT22;24784;45.582;5.276;2022-08-18T13:35:09;22.00;99.90
39017;DHT22;24784;45.582;5.276;2022-08-18T13:42:46;21.90;99.90
39017;DHT22;24784;45.582;5.276;2022-08-18T13:47:48;21.90;99.90
39017;DHT22;24784;45.582;5.276;2022-08-18T13:50:15;21.80;99.90
39017;DHT22;24784;45.582;5.276;2022-08-18T13:52:41;21.80;99.90
39017;DHT22;24784;45.582;5.276;2022-08-18T13:55:11;21.80;99.90
39017;DHT22;24784;45.582;5.276;2022-08-18T13:57:38;21.80;99.90
39017;DHT22;24784;45.582;5.276;2022-08-18T14:00:18;21.90;99.90
39017;DHT22;24784;45.582;5.276;2022-08-18T14:02:49;21.90;99.90
39017;DHT22;24784;45.582;5.276;2022-08-18T14:05:18;21.90;99.90
39017;DHT22;24784;45.582;5.276;2022-08-18T14:07:43;21.80;99.90
39017;DHT22;24784;45.582;5.276;2022-08-18T14:10:10;21.80;99.90
39017;DHT22;24784;45.582;5.276;2022-08-18T14:12:36;21.80;99.90
39017;DHT22;24784;45.582;5.276;2022-08-18T14:15:03;21.80;99.90
39017;DHT22;24784;45.582;5.276;2022-08-18T14:17:31;21.80;99.90
39017;DHT22;24784;45.582;5.276;2022-08-18T14:19:57;21.80;99.90
39017;DHT22;24784;45.582;5.276;2022-08-18T14:22:41;21.70;99.90
39017;DHT22;24784;45.582;5.276;2022-08-18T14:25:25;21.80;99.90
39017;DHT22;24784;45.582;5.276;2022-08-18T14:28:09;21.80;99.90
39017;DHT22;24784;45.582;5.276;2022-08-18T14:30:35;21.80;99.90
39017;DHT22;24784;45.582;5.276;2022-08-18T14:33:03;21.80;99.90
39017;DHT22;24784;45.582;5.276;2022-08-18T14:35:29;21.90;99.90
39017;DHT22;24784;45.582;5.276;2022-08-18T14:37:55;21.90;99.90
39017;DHT22;24784;45.582;5.276;2022-08-18T14:40:21;22.00;99.90
39017;DHT22;24784;45.582;5.276;2022-08-18T14:42:47;22.00;99.90
39017;DHT22;24784;45.582;5.276;2022-08-18T14:45:12;22.00;99.90
39017;DHT22;24784;45.582;5.276;2022-08-18T14:47:39;22.10;99.90
39017;DHT22;24784;45.582;5.276;2022-08-18T14:50:06;22.10;99.90
39017;DHT22;24784;45.582;5.276;2022-08-18T14:52:34;22.00;99.90
39017;DHT22;24784;45.582;5.276;2022-08-18T14:55:01;22.10;99.90
39017;DHT22;24784;45.582;5.276;2022-08-18T14:57:26;22.00;99.90
39017;DHT22;24784;45.582;5.276;2022-08-18T14:59:52;22.10;99.90
39017;DHT22;24784;45.582;5.276;2022-08-18T15:02:18;22.10;99.90
39017;DHT22;24784;45.582;5.276;2022-08-18T15:04:44;22.10;99.90
39017;DHT22;24784;45.582;5.276;2022-08-18T15:07:09;22.10;99.90
39017;DHT22;24784;45.582;5.276;2022-08-18T15:09:35;22.10;99.90
39017;DHT22;24784;45.582;5.276;2022-08-18T15:12:01;22.10;99.90
39017;DHT22;24784;45.582;5.276;2022-08-18T15:14:28;22.10;99.90
39017;DHT22;24784;45.582;5.276;2022-08-18T15:16:55;22.10;99.90
39017;DHT22;24784;45.582;5.276;2022-08-18T15:19:21;22.10;99.90
39017;DHT22;24784;45.582;5.276;2022-08-18T15:21:47;22.20;99.90
39017;DHT22;24784;45.582;5.276;2022-08-18T15:24:31;22.10;99.90
39017;DHT22;24784;45.582;5.276;2022-08-18T15:40:17;22.10;99.90
39017;DHT22;24784;45.582;5.276;2022-08-18T15:42:48;22.10;99.90
39017;DHT22;24784;45.582;5.276;2022-08-18T15:45:15;22.10;99.90
39017;DHT22;24784;45.582;5.276;2022-08-18T15:47:41;22.10;99.90
39017;DHT22;24784;45.582;5.276;2022-08-18T15:50:08;22.10;99.90
39017;DHT22;24784;45.582;5.276;2022-08-18T15:52:34;22.10;99.90
39017;DHT22;24784;45.582;5.276;2022-08-18T15:55:00;22.20;99.90
39017;DHT22;24784;45.582;5.276;2022-08-18T15:57:26;22.20;99.90
39017;DHT22;24784;45.582;5.276;2022-08-18T15:59:52;22.20;99.90
39017;DHT22;24784;45.582;5.276;2022-08-18T16:02:20;22.20;99.90
39017;DHT22;24784;45.582;5.276;2022-08-18T16:04:45;22.10;99.90
39017;DHT22;24784;45.582;5.276;2022-08-18T16:07:11;22.10;99.70
39017;DHT22;24784;45.582;5.276;2022-08-18T16:09:38;22.10;99.90
39017;DHT22;24784;45.582;5.276;2022-08-18T16:12:03;22.10;99.90
39017;DHT22;24784;45.582;5.276;2022-08-18T16:14:39;22.00;99.60
39017;DHT22;24784;45.582;5.276;2022-08-18T16:17:10;22.00;99.90
39017;DHT22;24784;45.582;5.276;2022-08-18T16:19:38;22.00;99.90
39017;DHT22;24784;45.582;5.276;2022-08-18T16:22:03;22.10;99.90
39017;DHT22;24784;45.582;5.276;2022-08-18T16:24:34;22.10;99.90
39017;DHT22;24784;45.582;5.276;2022-08-18T16:27:02;22.10;99.70
39017;DHT22;24784;45.582;5.276;2022-08-18T16:29:31;22.20;99.70
39017;DHT22;24784;45.582;5.276;2022-08-18T16:31:56;22.20;99.70
39017;DHT22;24784;45.582;5.276;2022-08-18T16:34:22;22.20;99.50
39017;DHT22;24784;45.582;5.276;2022-08-18T16:36:48;22.20;99.50
39017;DHT22;24784;45.582;5.276;2022-08-18T16:39:14;22.10;99.80
39017;DHT22;24784;45.582;5.276;2022-08-18T16:41:40;22.10;99.90
39017;DHT22;24784;45.582;5.276;2022-08-18T16:44:08;22.10;99.90
39017;DHT22;24784;45.582;5.276;2022-08-18T16:46:34;22.10;99.90
39017;DHT22;24784;45.582;5.276;2022-08-18T16:49:03;22.10;99.90
39017;DHT22;24784;45.582;5.276;2022-08-18T16:51:32;22.10;99.90
39017;DHT22;24784;45.582;5.276;2022-08-18T16:53:58;22.10;99.90
39017;DHT22;24784;45.582;5.276;2022-08-18T16:56:25;22.10;99.90
39017;DHT22;24784;45.582;5.276;2022-08-18T16:58:51;22.10;99.90
39017;DHT22;24784;45.582;5.276;2022-08-18T17:01:35;22.10;99.90
39017;DHT22;24784;45.582;5.276;2022-08-18T17:04:21;22.10;99.90
39017;DHT22;24784;45.582;5.276;2022-08-18T17:06:48;22.10;99.90
39017;DHT22;24784;45.582;5.276;2022-08-18T17:09:14;22.10;99.90
39017;DHT22;24784;45.582;5.276;2022-08-18T17:11:40;22.10;99.90
39017;DHT22;24784;45.582;5.276;2022-08-18T17:14:06;22.10;99.90
39017;DHT22;24784;45.582;5.276;2022-08-18T17:16:34;22.10;99.90
39017;DHT22;24784;45.582;5.276;2022-08-18T17:19:03;22.10;99.90
39017;DHT22;24784;45.582;5.276;2022-08-18T17:21:35;22.10;99.90
39017;DHT22;24784;45.582;5.276;2022-08-18T17:24:04;22.10;99.90
39017;DHT22;24784;45.582;5.276;2022-08-18T17:26:36;22.10;99.90
39017;DHT22;24784;45.582;5.276;2022-08-18T17:29:06;22.10;99.90
39017;DHT22;24784;45.582;5.276;2022-08-18T17:31:33;22.10;99.90
39017;DHT22;24784;45.582;5.276;2022-08-18T17:34:04;22.10;99.90
39017;DHT22;24784;45.582;5.276;2022-08-18T17:36:52;22.00;99.90
39017;DHT22;24784;45.582;5.276;2022-08-18T17:39:16;22.00;99.90
39017;DHT22;24784;45.582;5.276;2022-08-18T17:41:52;21.90;99.90
39017;DHT22;24784;45.582;5.276;2022-08-18T17:49:55;21.80;99.90
39017;DHT22;24784;45.582;5.276;2022-08-18T17:52:43;21.80;99.90
39017;DHT22;24784;45.582;5.276;2022-08-18T17:55:45;21.70;99.90
39017;DHT22;24784;45.582;5.276;2022-08-18T17:58:08;21.70;99.90
39017;DHT22;24784;45.582;5.276;2022-08-18T18:00:34;21.60;99.90
39017;DHT22;24784;45.582;5.276;2022-08-18T18:03:00;21.60;99.90
39017;DHT22;24784;45.582;5.276;2022-08-18T18:05:41;21.60;99.90
39017;DHT22;24784;45.582;5.276;2022-08-18T18:08:07;21.50;99.90
39017;DHT22;24784;45.582;5.276;2022-08-18T18:10:38;21.50;99.90
39017;DHT22;24784;45.582;5.276;2022-08-18T18:13:21;21.40;99.90
39017;DHT22;24784;45.582;5.276;2022-08-18T18:15:52;21.40;99.90
39017;DHT22;24784;45.582;5.276;2022-08-18T18:18:29;21.40;99.90
39017;DHT22;24784;45.582;5.276;2022-08-18T18:23:31;21.30;99.90
39017;DHT22;24784;45.582;5.276;2022-08-18T18:25:57;21.30;99.90
39017;DHT22;24784;45.582;5.276;2022-08-18T18:30:49;21.20;99.90
39017;DHT22;24784;45.582;5.276;2022-08-18T18:33:15;21.10;99.90
39017;DHT22;24784;45.582;5.276;2022-08-18T18:38:39;21.00;99.90
39017;DHT22;24784;45.582;5.276;2022-08-18T18:43:43;20.90;99.90
39017;DHT22;24784;45.582;5.276;2022-08-18T18:46:22;20.90;99.90
39017;DHT22;24784;45.582;5.276;2022-08-18T18:54:08;20.90;99.90
39017;DHT22;24784;45.582;5.276;2022-08-18T18:56:55;20.80;99.90
39017;DHT22;24784;45.582;5.276;2022-08-18T18:59:46;20.90;99.90
39017;DHT22;24784;45.582;5.276;2022-08-18T19:30:37;20.80;99.90
39017;DHT22;24784;45.582;5.276;2022-08-18T19:33:04;20.80;99.90
39017;DHT22;24784;45.582;5.276;2022-08-18T19:38:24;20.70;99.90
39017;DHT22;24784;45.582;5.276;2022-08-18T19:40:57;20.70;99.90
39017;DHT22;24784;45.582;5.276;2022-08-18T19:46:30;20.60;99.90